Kezdőlap
METAR-TAF:

METAR-TAF

Repülőterek :

Oujda, Marokkó

földrajzi szélesség: 34-47N, földrajzi hosszúság: 001-56W, magasság: 468 m

Jelenlegi meteorológiai megfigyelések

A jelentés 23 perccel ezelõtt készült, 07:00 UTC
Különbözõ irányokból fújó szél 2 kt
Hőmérséklet 18°C
Páratartalom 42%
Légköri nyomás 1016 hPa
Látótávolság 10 km, vagy több
felhőtlen 1500 m magasságban, és nincs gomolyfelhõ

METAR: GMFO 230700Z VRB02KT CAVOK 18/05 Q1016 NOSIG

Idő: 08:23 (07:23 UTC)

Előrejelzés

A jelentés 2 órával és 23 perccel ezelõtt készült, 05:00 UTC
Az előrejelzés 23-én 06 óra UTC és 24-én 12 óra UTC között érvényes
Északi szél 4 kt
Látótávolság 10 km, vagy több
felhőtlen 1500 m magasságban, és nincs gomolyfelhõ
23-én 14 óra UTC és 23-én 17 óra UTC között ideiglenes
Északi szél 14 kt

TAF: GMFO 230500Z 2306/2412 01004KT CAVOK TEMPO 2314/2317 35014KT

Meteorológiai megfigyelések és előrejelzések több, mint 4000 repülőtéren (METAR és TAF jelentéseket).

A térképen piros és sárga pontok jelzik az elérhető meteorológiai állomásokat.

Mozgassa az egeret a pont fölött, hogy megjelenjen az állomás neve.

Azután kattintson az időjárási megfigyelések és előrejelzések megtekintéséhez.

A térkép megváltoztatása: kattintson a fekete keresztel jelölt zöld gombra ráközelítéshez, a vonallal jelölt zöld gombra távolításhoz, vagy a zöld nyilakra a szomszédos térképek eléréséhez.


METAR-TAF: